Time;durP1;ratioP1;P1;durP2;ratioP2;P2;SDS_P1;SDS_P2;PMS_P1;PMS_P2;Temp;Humidity;BMP_temperature;BMP_pressure;BME280_temperature;BME280_humidity;BME280_pressure;Samples;Min_cycle;Max_cycle;Signal;HPM_P1;HPM_P2
2020/12/09 00:03:35;;;;;;;14.83;12.07;;;6.20;44.30;;;;;;10292460;28;20239;-71
2020/12/09 00:08:38;;;;;;;14.17;11.47;;;6.10;44.40;;;;;;10298124;28;20223;-70
2020/12/09 00:13:41;;;;;;;14.47;12.30;;;6.10;44.50;;;;;;10293231;28;20255;-70
2020/12/09 00:18:43;;;;;;;12.47;11.17;;;6.00;44.40;;;;;;10312763;28;20237;-70
2020/12/09 00:23:46;;;;;;;12.17;10.47;;;6.00;44.50;;;;;;10305179;28;20236;-70
2020/12/09 00:28:50;;;;;;;13.93;11.73;;;6.00;44.60;;;;;;10305731;28;20228;-74
2020/12/09 00:33:53;;;;;;;12.27;10.97;;;6.10;44.70;;;;;;10291914;28;20692;-70
2020/12/09 00:38:56;;;;;;;13.53;11.80;;;6.10;44.70;;;;;;10300229;28;20700;-74
2020/12/09 00:43:59;;;;;;;14.50;12.13;;;6.10;44.70;;;;;;10298479;28;20223;-70
2020/12/09 00:49:01;;;;;;;14.77;12.90;;;6.10;44.60;;;;;;10295699;28;20228;-70
2020/12/09 00:54:04;;;;;;;16.03;13.80;;;6.10;44.60;;;;;;10297906;28;20222;-71
2020/12/09 00:59:06;;;;;;;15.00;13.40;;;6.00;44.60;;;;;;10287982;28;20216;-71
2020/12/09 01:04:08;;;;;;;16.63;13.77;;;6.00;44.60;;;;;;10291924;28;20228;-73
2020/12/09 01:09:11;;;;;;;16.27;14.23;;;6.00;44.70;;;;;;10288324;28;20234;-73
2020/12/09 01:14:13;;;;;;;15.13;13.43;;;6.00;44.80;;;;;;10290360;28;20234;-73
2020/12/09 01:19:15;;;;;;;17.00;13.97;;;6.00;44.90;;;;;;10305395;28;20230;-70
2020/12/09 01:24:18;;;;;;;17.00;14.37;;;6.00;44.90;;;;;;10294546;28;20231;-73
2020/12/09 01:29:20;;;;;;;20.17;15.17;;;6.00;44.90;;;;;;10296451;28;20221;-74
2020/12/09 01:34:23;;;;;;;19.10;15.30;;;6.00;44.90;;;;;;10293114;28;20227;-73
2020/12/09 01:39:26;;;;;;;17.10;14.87;;;6.00;45.00;;;;;;10292734;28;20247;-71
2020/12/09 01:44:28;;;;;;;18.43;15.53;;;6.00;45.00;;;;;;10286340;28;20315;-70
2020/12/09 01:49:32;;;;;;;19.47;16.40;;;6.00;44.80;;;;;;10291639;28;20754;-70
2020/12/09 01:54:35;;;;;;;19.30;16.30;;;6.00;44.80;;;;;;10291729;28;20231;-70
2020/12/09 01:59:38;;;;;;;20.37;16.53;;;6.00;44.90;;;;;;10290721;28;20223;-74
2020/12/09 02:04:41;;;;;;;20.43;16.87;;;6.00;44.80;;;;;;10287434;28;20223;-73
2020/12/09 02:09:44;;;;;;;20.23;17.13;;;6.00;44.90;;;;;;10285053;28;20235;-70
2020/12/09 02:14:47;;;;;;;20.97;16.47;;;6.00;44.90;;;;;;10300211;28;20234;-73
2020/12/09 02:19:49;;;;;;;19.23;16.53;;;6.00;44.90;;;;;;10290119;28;20243;-74
2020/12/09 02:24:52;;;;;;;19.57;16.43;;;6.00;44.80;;;;;;10303373;28;20326;-70
2020/12/09 02:29:54;;;;;;;19.63;16.83;;;6.00;45.00;;;;;;10303464;28;20237;-70
2020/12/09 02:34:56;;;;;;;19.53;16.53;;;6.00;44.90;;;;;;10300773;28;20227;-70
2020/12/09 02:39:59;;;;;;;21.80;17.70;;;6.00;45.00;;;;;;10303067;28;20703;-70
2020/12/09 02:45:02;;;;;;;20.13;17.33;;;6.00;45.00;;;;;;10306815;28;20688;-70
2020/12/09 02:50:04;;;;;;;19.57;15.80;;;6.00;45.00;;;;;;10304886;28;20230;-71
2020/12/09 02:55:07;;;;;;;20.03;16.70;;;6.00;45.00;;;;;;10299294;28;20234;-71
2020/12/09 03:00:09;;;;;;;21.33;17.17;;;6.00;45.10;;;;;;10296330;28;20224;-70
2020/12/09 03:05:11;;;;;;;20.27;16.37;;;5.90;45.00;;;;;;10304642;28;20231;-73
2020/12/09 03:10:14;;;;;;;20.03;16.63;;;5.90;45.10;;;;;;10290488;28;20230;-70
2020/12/09 03:15:17;;;;;;;21.17;16.53;;;5.90;45.20;;;;;;10294027;28;20242;-70
2020/12/09 03:20:19;;;;;;;19.53;16.03;;;5.90;45.10;;;;;;10293361;28;20234;-70
2020/12/09 03:25:22;;;;;;;20.60;16.57;;;5.90;45.20;;;;;;10303059;28;20733;-70
2020/12/09 03:30:24;;;;;;;18.63;15.87;;;5.90;45.20;;;;;;10303726;28;20237;-70
2020/12/09 03:35:26;;;;;;;19.73;16.03;;;5.90;45.20;;;;;;10292733;28;20232;-73
2020/12/09 03:40:29;;;;;;;19.20;15.40;;;5.90;45.10;;;;;;10298223;28;20692;-73
2020/12/09 03:45:31;;;;;;;18.60;15.10;;;5.90;45.20;;;;;;10299005;28;20228;-73
2020/12/09 03:50:34;;;;;;;17.87;15.00;;;5.80;45.20;;;;;;10299621;28;20231;-73
2020/12/09 03:55:37;;;;;;;19.57;15.90;;;5.80;45.20;;;;;;10295562;28;20238;-70
2020/12/09 04:00:39;;;;;;;16.60;14.30;;;5.90;45.20;;;;;;10296406;28;20228;-74
2020/12/09 04:05:41;;;;;;;18.83;15.87;;;5.90;45.20;;;;;;10289679;28;20745;-70
2020/12/09 04:10:44;;;;;;;18.93;15.60;;;5.90;45.10;;;;;;10292343;28;20227;-71
2020/12/09 04:15:46;;;;;;;18.80;15.13;;;6.00;45.10;;;;;;10295296;28;20273;-74
2020/12/09 04:20:48;;;;;;;19.27;16.20;;;6.00;45.00;;;;;;10290049;28;20227;-73
2020/12/09 04:25:51;;;;;;;18.37;15.67;;;6.00;45.10;;;;;;10292614;28;20738;-70
2020/12/09 04:30:54;;;;;;;19.47;15.93;;;6.00;45.10;;;;;;10305838;28;20599;-71
2020/12/09 04:35:56;;;;;;;21.00;16.83;;;6.00;45.10;;;;;;10291680;28;20234;-74
2020/12/09 04:40:59;;;;;;;18.63;15.77;;;6.00;45.00;;;;;;10308050;28;20242;-71
2020/12/09 04:46:01;;;;;;;21.03;16.77;;;6.10;45.20;;;;;;10290100;28;20249;-72
2020/12/09 04:51:58;;;;;;;19.87;17.07;;;6.00;45.10;;;;;;10297134;28;20224;-71
2020/12/09 04:57:08;;;;;;;20.13;16.10;;;6.10;45.40;;;;;;10300392;28;20227;-70
2020/12/09 05:02:11;;;;;;;18.90;14.83;;;6.10;45.20;;;;;;10301447;28;20219;-71
2020/12/09 05:07:13;;;;;;;20.50;16.73;;;6.10;45.10;;;;;;10291066;28;20246;-73
2020/12/09 05:12:18;;;;;;;23.67;17.57;;;6.10;45.10;;;;;;10295537;28;20607;-70
2020/12/09 05:17:21;;;;;;;21.30;17.33;;;6.10;45.30;;;;;;10295857;28;20244;-73
2020/12/09 05:22:23;;;;;;;20.47;16.90;;;6.10;45.20;;;;;;10296345;28;20726;-74
2020/12/09 05:27:26;;;;;;;20.90;17.10;;;6.10;45.20;;;;;;10299257;28;20655;-70
2020/12/09 05:32:29;;;;;;;21.60;17.00;;;6.10;45.50;;;;;;10308846;28;20738;-73
2020/12/09 05:37:31;;;;;;;20.07;16.93;;;6.10;45.40;;;;;;10287881;28;20234;-71
2020/12/09 05:42:34;;;;;;;19.13;16.37;;;6.10;45.40;;;;;;10299382;28;20237;-73
2020/12/09 05:47:36;;;;;;;21.80;17.40;;;6.10;45.30;;;;;;10300178;28;20246;-73
2020/12/09 05:52:40;;;;;;;22.90;17.70;;;6.10;45.30;;;;;;10313279;23;20219;-69
2020/12/09 05:57:43;;;;;;;23.70;18.50;;;6.10;45.40;;;;;;10308902;28;20224;-69
2020/12/09 06:02:46;;;;;;;23.27;19.80;;;6.10;45.50;;;;;;10306529;28;20246;-69
2020/12/09 06:07:48;;;;;;;22.40;18.17;;;6.10;45.40;;;;;;10310936;28;20233;-69
2020/12/09 06:12:54;;;;;;;22.23;18.27;;;6.10;45.50;;;;;;10310867;28;20233;-69
2020/12/09 06:18:08;;;;;;;23.93;18.83;;;6.10;45.50;;;;;;10314278;28;20223;-69
2020/12/09 06:23:12;;;;;;;21.00;16.90;;;6.10;45.60;;;;;;10306752;28;20675;-69
2020/12/09 06:28:16;;;;;;;23.53;16.83;;;6.20;45.40;;;;;;10300761;28;20232;-70
2020/12/09 06:33:36;;;;;;;20.17;16.43;;;6.20;45.40;;;;;;10315789;28;20241;-70
2020/12/09 06:38:39;;;;;;;21.27;16.70;;;6.10;45.70;;;;;;10302917;28;20313;-70
2020/12/09 06:44:03;;;;;;;21.30;17.80;;;6.10;45.50;;;;;;10312283;28;20223;-70
2020/12/09 06:49:26;;;;;;;23.80;18.00;;;6.10;46.00;;;;;;10304060;28;20219;-70
2020/12/09 06:54:39;;;;;;;21.33;17.80;;;6.10;45.50;;;;;;10305091;28;20293;-70
2020/12/09 06:59:43;;;;;;;20.60;17.03;;;6.10;46.00;;;;;;10305745;28;20224;-69
2020/12/09 07:05:08;;;;;;;19.37;15.47;;;6.10;45.60;;;;;;10303023;28;20223;-69
2020/12/09 07:10:25;;;;;;;20.47;16.63;;;6.10;46.10;;;;;;10311811;28;20594;-70
2020/12/09 07:15:28;;;;;;;19.40;15.33;;;6.10;46.10;;;;;;10312896;28;20230;-70
2020/12/09 07:20:30;;;;;;;22.60;17.33;;;6.20;45.80;;;;;;10307170;28;20604;-69
2020/12/09 07:25:34;;;;;;;21.97;17.83;;;6.20;45.70;;;;;;10310644;28;20227;-70
2020/12/09 07:30:37;;;;;;;19.43;16.17;;;6.20;45.90;;;;;;10320779;28;20313;-70
2020/12/09 07:35:42;;;;;;;20.47;16.13;;;6.20;45.80;;;;;;10322400;28;20324;-70
2020/12/09 07:40:44;;;;;;;18.53;15.00;;;6.20;45.80;;;;;;10324304;28;20232;-69
2020/12/09 07:45:47;;;;;;;20.63;15.53;;;6.20;45.80;;;;;;10310254;28;20315;-70
2020/12/09 07:50:52;;;;;;;20.80;16.53;;;6.20;45.80;;;;;;10307656;28;20315;-70
2020/12/09 07:55:58;;;;;;;20.87;17.03;;;6.20;45.80;;;;;;10325182;28;20602;-69
2020/12/09 08:01:01;;;;;;;21.50;16.13;;;6.20;45.70;;;;;;10316784;28;20253;-70
2020/12/09 08:06:03;;;;;;;21.97;17.00;;;6.20;45.80;;;;;;10319160;28;20230;-70
2020/12/09 08:11:07;;;;;;;20.53;15.87;;;6.20;45.80;;;;;;10319688;28;20231;-70
2020/12/09 08:16:11;;;;;;;18.77;15.63;;;6.10;46.00;;;;;;10314499;28;20227;-70
2020/12/09 08:21:25;;;;;;;19.20;15.87;;;6.10;46.00;;;;;;10313989;28;20739;-70
2020/12/09 08:26:30;;;;;;;23.33;18.57;;;6.10;46.40;;;;;;10311318;28;20219;-70
2020/12/09 08:31:34;;;;;;;18.20;15.23;;;6.10;46.00;;;;;;10312246;28;20377;-70
2020/12/09 08:36:39;;;;;;;17.47;14.77;;;6.10;46.10;;;;;;10320083;28;20233;-70
2020/12/09 08:41:41;;;;;;;18.43;16.40;;;6.10;46.20;;;;;;10304519;28;20829;-70
2020/12/09 08:46:45;;;;;;;22.30;16.83;;;6.20;46.20;;;;;;10306871;28;20293;-70
2020/12/09 08:51:47;;;;;;;17.97;15.17;;;6.20;46.00;;;;;;10303331;28;20227;-70
2020/12/09 08:56:49;;;;;;;16.80;14.67;;;6.20;46.00;;;;;;10301950;28;20235;-70
2020/12/09 09:01:52;;;;;;;20.07;16.60;;;6.20;45.80;;;;;;10306188;28;20234;-70
2020/12/09 09:06:54;;;;;;;16.87;15.07;;;6.20;45.90;;;;;;10304297;28;20230;-70
2020/12/09 09:11:58;;;;;;;17.07;15.07;;;6.20;45.80;;;;;;10313395;28;20223;-70
2020/12/09 09:17:04;;;;;;;17.63;15.10;;;6.10;45.80;;;;;;10307935;28;20640;-70
2020/12/09 09:22:06;;;;;;;15.37;13.43;;;6.10;45.90;;;;;;10301984;28;20234;-70
2020/12/09 09:27:12;;;;;;;18.10;13.87;;;6.10;45.90;;;;;;10301092;28;20229;-70
2020/12/09 09:32:17;;;;;;;14.53;12.73;;;6.10;46.10;;;;;;10297994;28;20231;-70
2020/12/09 09:37:21;;;;;;;17.40;14.00;;;6.00;45.80;;;;;;10305185;28;20317;-70
2020/12/09 09:42:23;;;;;;;15.33;13.13;;;6.10;45.80;;;;;;10309402;28;20313;-70
2020/12/09 09:47:27;;;;;;;13.87;12.47;;;6.10;45.70;;;;;;10304333;28;20591;-70
2020/12/09 09:52:29;;;;;;;14.13;12.63;;;6.10;45.90;;;;;;10305211;28;20318;-70
2020/12/09 09:57:33;;;;;;;15.67;12.93;;;6.00;45.80;;;;;;10308312;28;20255;-70
2020/12/09 10:02:36;;;;;;;14.60;13.07;;;6.00;45.70;;;;;;10307472;28;20633;-70
2020/12/09 10:07:38;;;;;;;14.03;12.63;;;6.00;45.80;;;;;;10305297;28;20237;-69
2020/12/09 10:12:40;;;;;;;13.30;11.90;;;6.00;45.90;;;;;;10305642;28;20612;-69
2020/12/09 10:17:43;;;;;;;14.70;13.17;;;5.90;46.00;;;;;;10304056;28;20237;-70
2020/12/09 10:22:46;;;;;;;15.83;13.50;;;5.90;46.00;;;;;;10311700;28;20226;-69
2020/12/09 10:27:48;;;;;;;13.43;12.03;;;5.90;45.80;;;;;;10306529;28;20219;-70
2020/12/09 10:32:52;;;;;;;13.70;12.27;;;5.90;45.70;;;;;;10306079;28;20742;-69
2020/12/09 10:37:54;;;;;;;14.00;12.60;;;5.90;46.80;;;;;;10312140;28;20695;-69
2020/12/09 10:42:57;;;;;;;15.20;13.60;;;5.90;46.10;;;;;;10312765;28;20233;-69
2020/12/09 10:48:00;;;;;;;13.20;11.83;;;5.90;46.00;;;;;;10317039;28;20233;-69
2020/12/09 10:53:02;;;;;;;13.20;11.90;;;6.00;46.10;;;;;;10315208;28;20729;-71
2020/12/09 10:58:05;;;;;;;15.37;13.77;;;6.00;46.00;;;;;;10317917;28;20219;-70
2020/12/09 11:03:08;;;;;;;14.07;12.57;;;6.00;45.90;;;;;;10316877;28;20230;-70
2020/12/09 11:08:10;;;;;;;15.03;13.43;;;6.00;46.00;;;;;;10320594;28;20227;-70
2020/12/09 11:13:12;;;;;;;13.53;12.13;;;6.00;46.00;;;;;;10315028;28;20728;-70
2020/12/09 11:18:15;;;;;;;13.47;12.07;;;6.00;46.10;;;;;;10320291;28;20233;-70
2020/12/09 11:23:17;;;;;;;12.43;11.17;;;6.00;46.10;;;;;;10322657;28;20227;-70
2020/12/09 11:28:20;;;;;;;13.20;11.87;;;6.00;45.90;;;;;;10327569;28;20289;-69
2020/12/09 11:33:31;;;;;;;13.53;12.17;;;6.00;45.80;;;;;;10310444;28;20235;-69
2020/12/09 11:38:33;;;;;;;14.03;12.63;;;6.00;46.00;;;;;;10318387;28;20218;-70
2020/12/09 11:43:36;;;;;;;12.87;11.57;;;6.00;46.00;;;;;;10310797;28;20285;-70
2020/12/09 11:48:39;;;;;;;13.33;12.03;;;6.00;46.00;;;;;;10329329;23;20290;-70
2020/12/09 11:53:44;;;;;;;12.53;11.23;;;6.00;45.90;;;;;;10286670;28;20239;-70
2020/12/09 11:58:46;;;;;;;12.47;11.27;;;6.00;46.00;;;;;;10281841;28;20258;-70
2020/12/09 12:03:49;;;;;;;14.57;13.17;;;6.00;46.00;;;;;;10287609;28;20228;-70
2020/12/09 12:08:52;;;;;;;12.17;10.87;;;6.00;46.10;;;;;;10281649;28;20305;-70
2020/12/09 12:13:55;;;;;;;11.93;10.73;;;6.00;47.00;;;;;;10271034;28;20283;-70
2020/12/09 12:18:58;;;;;;;12.83;11.63;;;6.00;46.10;;;;;;10272434;28;20231;-70
2020/12/09 12:24:00;;;;;;;12.73;11.53;;;6.00;46.10;;;;;;10275501;28;20228;-70
2020/12/09 12:29:02;;;;;;;13.43;12.13;;;6.00;46.20;;;;;;10272923;28;20235;-71
2020/12/09 12:34:05;;;;;;;15.30;13.70;;;6.00;46.30;;;;;;10275156;28;20235;-70
2020/12/09 12:39:08;;;;;;;25.83;18.53;;;6.00;46.50;;;;;;10275350;28;20614;-71
2020/12/09 12:44:10;;;;;;;18.77;14.80;;;6.00;46.50;;;;;;10272149;28;20227;-75
2020/12/09 12:49:13;;;;;;;17.70;15.00;;;6.00;46.30;;;;;;10266803;28;20235;-74
2020/12/09 12:54:15;;;;;;;14.10;12.53;;;6.00;46.20;;;;;;10272064;28;20224;-74
2020/12/09 12:59:18;;;;;;;15.63;13.77;;;6.00;46.20;;;;;;10262318;28;20247;-74
2020/12/09 13:04:21;;;;;;;15.97;14.33;;;5.90;46.20;;;;;;10274951;28;20255;-74
2020/12/09 13:09:23;;;;;;;14.40;13.00;;;5.90;46.20;;;;;;10264660;28;20232;-75
2020/12/09 13:14:25;;;;;;;12.90;11.60;;;5.90;46.30;;;;;;10259725;28;20239;-75
2020/12/09 13:19:28;;;;;;;10.93;9.87;;;6.00;46.30;;;;;;10270324;28;20227;-75
2020/12/09 13:24:31;;;;;;;11.83;10.70;;;6.00;46.50;;;;;;10273492;28;20228;-75
2020/12/09 13:29:33;;;;;;;11.87;10.67;;;6.00;46.30;;;;;;10266769;28;20311;-75
2020/12/09 13:34:36;;;;;;;11.70;10.60;;;6.00;46.30;;;;;;10266905;28;20232;-75
2020/12/09 13:39:38;;;;;;;10.43;9.43;;;6.00;46.30;;;;;;10265772;28;20232;-76
2020/12/09 13:44:40;;;;;;;10.00;9.00;;;6.00;46.10;;;;;;10268879;28;20225;-75
2020/12/09 13:49:43;;;;;;;9.00;8.20;;;6.00;46.10;;;;;;10267310;28;20670;-76
2020/12/09 13:54:46;;;;;;;7.97;7.27;;;6.00;46.10;;;;;;10258318;28;20247;-75
2020/12/09 13:59:48;;;;;;;9.17;8.27;;;6.00;46.20;;;;;;10269141;28;20231;-76
2020/12/09 14:04:51;;;;;;;9.47;8.47;;;6.00;46.10;;;;;;10267767;28;20223;-76
2020/12/09 14:09:53;;;;;;;8.33;7.53;;;6.00;46.20;;;;;;10269665;28;21017;-76
2020/12/09 14:14:55;;;;;;;8.03;7.33;;;6.10;46.20;;;;;;10269407;28;20243;-74
2020/12/09 14:20:05;;;;;;;8.23;7.43;;;6.10;46.10;;;;;;10269997;28;20235;-74
2020/12/09 14:25:07;;;;;;;7.93;7.23;;;6.00;46.10;;;;;;10278547;28;20754;-75
2020/12/09 14:30:19;;;;;;;7.37;6.77;;;6.00;46.10;;;;;;10262977;28;20397;-74
2020/12/09 14:35:22;;;;;;;7.67;6.97;;;6.10;46.10;;;;;;10271775;28;20362;-74
2020/12/09 14:40:25;;;;;;;8.43;7.63;;;6.00;46.00;;;;;;10269540;28;20603;-74
2020/12/09 14:45:27;;;;;;;7.30;6.67;;;6.00;45.90;;;;;;10264139;28;20227;-74
2020/12/09 14:50:30;;;;;;;6.93;6.33;;;6.00;46.00;;;;;;10268600;28;20261;-74
2020/12/09 14:55:32;;;;;;;8.03;7.33;;;6.00;46.20;;;;;;10271689;28;20625;-74
2020/12/09 15:00:35;;;;;;;7.90;7.20;;;6.00;46.20;;;;;;10267737;28;20223;-71
2020/12/09 15:05:38;;;;;;;7.43;6.83;;;6.00;46.10;;;;;;10281433;28;20223;-72
2020/12/09 15:10:41;;;;;;;6.37;5.87;;;6.00;46.10;;;;;;10268088;28;20226;-72
2020/12/09 15:15:44;;;;;;;7.20;6.60;;;6.00;46.00;;;;;;10277999;28;20227;-72
2020/12/09 15:20:49;;;;;;;6.87;6.17;;;6.00;46.00;;;;;;10269822;28;20234;-72
2020/12/09 15:25:52;;;;;;;6.03;5.53;;;6.00;46.10;;;;;;10273468;28;20226;-72
2020/12/09 15:30:54;;;;;;;6.50;5.87;;;6.00;46.10;;;;;;10260450;28;20613;-72
2020/12/09 15:35:58;;;;;;;6.20;5.70;;;6.00;46.00;;;;;;10277178;28;20231;-72
2020/12/09 15:41:00;;;;;;;7.40;6.70;;;6.00;46.20;;;;;;10264019;28;20235;-71
2020/12/09 15:46:02;;;;;;;7.97;7.27;;;6.00;46.00;;;;;;10264159;28;20245;-72
2020/12/09 15:51:07;;;;;;;8.57;7.77;;;6.00;46.00;;;;;;10263192;28;20255;-72
2020/12/09 15:56:11;;;;;;;6.77;6.17;;;6.00;46.20;;;;;;10270558;28;20231;-71
2020/12/09 16:01:14;;;;;;;7.70;7.00;;;6.00;46.10;;;;;;10259696;28;20238;-72
2020/12/09 16:06:17;;;;;;;6.87;6.27;;;6.00;46.00;;;;;;10262192;28;20231;-77
2020/12/09 16:11:19;;;;;;;8.80;8.00;;;6.00;46.00;;;;;;10279253;28;20242;-77
2020/12/09 16:16:21;;;;;;;8.90;8.13;;;6.00;45.80;;;;;;10260153;28;20372;-78
2020/12/09 16:21:24;;;;;;;9.17;8.27;;;6.00;46.00;;;;;;10269645;28;20228;-76
2020/12/09 16:26:27;;;;;;;8.30;7.50;;;5.90;46.50;;;;;;10276570;28;20224;-76
2020/12/09 16:31:33;;;;;;;6.77;6.20;;;5.90;46.10;;;;;;10277854;28;20242;-76
2020/12/09 16:36:36;;;;;;;10.13;9.13;;;5.90;46.40;;;;;;10272802;28;20223;-76
2020/12/09 16:41:38;;;;;;;10.93;9.73;;;5.90;46.30;;;;;;10279508;28;20228;-76
2020/12/09 16:46:40;;;;;;;7.47;6.83;;;5.90;46.20;;;;;;10269835;28;20261;-76
2020/12/09 16:51:44;;;;;;;6.00;5.50;;;5.90;46.30;;;;;;10260901;28;20853;-76
2020/12/09 16:56:47;;;;;;;12.77;11.47;;;5.90;46.40;;;;;;10263836;28;20584;-77
2020/12/09 17:01:49;;;;;;;6.90;6.20;;;5.90;46.20;;;;;;10268789;28;20232;-77
2020/12/09 17:06:52;;;;;;;7.03;6.43;;;5.90;46.00;;;;;;10268548;28;20230;-76
2020/12/09 17:11:55;;;;;;;7.07;6.53;;;5.90;46.20;;;;;;10267143;28;20573;-76
2020/12/09 17:16:57;;;;;;;6.60;5.97;;;5.80;46.10;;;;;;10266654;28;20328;-75
2020/12/09 17:22:00;;;;;;;6.00;5.50;;;5.80;46.20;;;;;;10261499;28;20226;-76
2020/12/09 17:27:02;;;;;;;5.17;4.77;;;5.80;46.30;;;;;;10269342;28;20694;-75
2020/12/09 17:32:07;;;;;;;5.60;5.20;;;5.80;46.20;;;;;;10259853;28;20297;-75
2020/12/09 17:37:10;;;;;;;6.53;5.93;;;5.80;46.30;;;;;;10256843;28;20716;-75
2020/12/09 17:42:12;;;;;;;6.10;5.50;;;5.70;46.20;;;;;;10275826;28;20763;-75
2020/12/09 17:47:15;;;;;;;5.63;5.13;;;5.70;46.40;;;;;;10264479;28;20335;-75
2020/12/09 17:52:19;;;;;;;5.63;5.13;;;5.70;46.60;;;;;;10256764;28;20264;-75
2020/12/09 17:57:21;;;;;;;6.10;5.60;;;5.70;46.60;;;;;;10269484;28;20250;-76
2020/12/09 18:02:23;;;;;;;6.80;6.10;;;5.80;46.60;;;;;;10271479;28;20236;-76
2020/12/09 18:07:26;;;;;;;6.43;5.87;;;5.80;47.20;;;;;;10256472;28;20604;-76
2020/12/09 18:12:30;;;;;;;5.57;5.17;;;5.80;46.50;;;;;;10266720;28;20232;-75
2020/12/09 18:17:32;;;;;;;6.40;5.80;;;5.80;46.40;;;;;;10271102;28;20704;-75
2020/12/09 18:22:36;;;;;;;5.60;5.10;;;5.80;46.50;;;;;;10264519;28;20748;-75
2020/12/09 18:27:38;;;;;;;5.67;5.17;;;5.80;46.50;;;;;;10268649;28;20235;-75
2020/12/09 18:32:40;;;;;;;6.70;6.10;;;5.80;46.40;;;;;;10253645;28;20251;-75
2020/12/09 18:37:44;;;;;;;5.87;5.37;;;5.80;46.40;;;;;;10274128;28;20749;-76
2020/12/09 18:42:48;;;;;;;6.23;5.73;;;5.70;46.40;;;;;;10259280;28;20228;-74
2020/12/09 18:47:53;;;;;;;7.07;6.43;;;5.70;46.30;;;;;;10269683;28;20231;-75
2020/12/09 18:52:57;;;;;;;5.97;5.47;;;5.70;46.30;;;;;;10267116;28;20241;-74
2020/12/09 18:57:59;;;;;;;6.70;6.10;;;5.70;46.50;;;;;;10247564;28;20235;-74
2020/12/09 19:03:01;;;;;;;7.43;6.83;;;5.70;46.50;;;;;;10260728;28;20230;-74
2020/12/09 19:08:05;;;;;;;6.23;5.70;;;5.70;46.50;;;;;;10284453;28;20230;-74
2020/12/09 19:13:07;;;;;;;6.67;6.00;;;5.70;46.60;;;;;;10273705;28;20233;-74
2020/12/09 19:18:09;;;;;;;5.87;5.37;;;5.70;46.40;;;;;;10276223;28;20216;-74
2020/12/09 19:23:12;;;;;;;5.13;4.73;;;5.70;46.50;;;;;;10267152;28;20224;-74
2020/12/09 19:28:14;;;;;;;5.60;5.10;;;5.70;46.70;;;;;;10281060;28;20243;-74
2020/12/09 19:33:17;;;;;;;5.17;4.77;;;5.70;46.60;;;;;;10274457;28;20241;-74
2020/12/09 19:38:20;;;;;;;5.33;4.93;;;5.70;46.50;;;;;;10282692;28;20602;-74
2020/12/09 19:43:22;;;;;;;5.47;5.00;;;5.60;46.60;;;;;;10266743;28;20242;-75
2020/12/09 19:48:24;;;;;;;5.13;4.73;;;5.60;46.60;;;;;;10267089;28;20228;-74
2020/12/09 19:53:27;;;;;;;5.00;4.60;;;5.60;46.60;;;;;;10272318;28;20227;-75
2020/12/09 19:58:30;;;;;;;5.37;4.97;;;5.60;46.80;;;;;;10265761;28;20871;-75
2020/12/09 20:03:32;;;;;;;5.17;4.70;;;5.70;46.80;;;;;;10259078;28;20299;-75
2020/12/09 20:08:35;;;;;;;6.00;5.50;;;5.70;46.80;;;;;;10265990;28;20224;-75
2020/12/09 20:13:38;;;;;;;5.30;4.87;;;5.70;46.70;;;;;;10274000;28;20703;-75
2020/12/09 20:18:40;;;;;;;5.80;5.30;;;5.70;46.60;;;;;;10271278;28;20779;-75
2020/12/09 20:23:44;;;;;;;4.87;4.47;;;5.70;46.50;;;;;;10262101;28;20302;-75
2020/12/09 20:28:47;;;;;;;5.00;4.60;;;5.70;46.60;;;;;;10257318;28;20240;-75
2020/12/09 20:33:49;;;;;;;4.40;4.07;;;5.70;46.50;;;;;;10264548;28;20603;-75
2020/12/09 20:38:53;;;;;;;5.30;4.90;;;5.70;46.50;;;;;;10265538;28;20238;-75
2020/12/09 20:43:56;;;;;;;4.60;4.20;;;5.70;46.60;;;;;;10262416;28;20304;-75
2020/12/09 20:49:00;;;;;;;4.57;4.17;;;5.70;46.70;;;;;;10257418;28;20254;-74
2020/12/09 20:54:03;;;;;;;4.47;4.07;;;5.70;46.70;;;;;;10263239;28;20223;-75
2020/12/09 20:59:06;;;;;;;4.70;4.30;;;5.70;46.50;;;;;;10263037;28;20311;-73
2020/12/09 21:04:09;;;;;;;5.13;4.73;;;5.70;46.50;;;;;;10262456;28;20248;-73
2020/12/09 21:09:13;;;;;;;5.20;4.80;;;5.70;46.60;;;;;;10259718;28;20231;-73
2020/12/09 21:14:18;;;;;;;6.33;5.73;;;5.60;46.60;;;;;;10272305;28;20585;-73
2020/12/09 21:19:20;;;;;;;5.73;5.23;;;5.60;46.80;;;;;;10268214;28;20410;-75
2020/12/09 21:24:23;;;;;;;5.87;5.37;;;5.50;46.70;;;;;;10269165;28;20243;-73
2020/12/09 21:29:26;;;;;;;6.13;5.60;;;5.50;46.80;;;;;;10252914;28;20231;-73
2020/12/09 21:34:28;;;;;;;6.27;5.67;;;5.50;46.80;;;;;;10272779;28;20315;-75
2020/12/09 21:39:31;;;;;;;5.87;5.27;;;5.50;46.80;;;;;;10270203;28;20223;-73
2020/12/09 21:44:33;;;;;;;6.07;5.57;;;5.60;46.90;;;;;;10270114;28;20584;-73
2020/12/09 21:49:36;;;;;;;7.17;6.47;;;5.60;46.80;;;;;;10260630;28;20232;-73
2020/12/09 21:54:39;;;;;;;6.30;5.80;;;5.60;46.90;;;;;;10273967;28;20238;-72
2020/12/09 21:59:42;;;;;;;6.57;6.00;;;5.60;47.00;;;;;;10263536;28;20762;-74
2020/12/09 22:04:44;;;;;;;7.10;6.50;;;5.60;46.80;;;;;;10268320;28;20230;-74
2020/12/09 22:09:47;;;;;;;7.00;6.23;;;5.70;46.80;;;;;;10271338;28;20696;-74
2020/12/09 22:14:50;;;;;;;6.97;6.37;;;5.70;46.70;;;;;;10277906;28;20240;-75
2020/12/09 22:19:54;;;;;;;7.10;6.50;;;5.70;46.80;;;;;;10257657;28;20800;-74
2020/12/09 22:24:58;;;;;;;7.57;6.87;;;5.70;46.80;;;;;;10263116;28;20232;-74
2020/12/09 22:30:00;;;;;;;8.10;7.40;;;5.70;46.90;;;;;;10267915;28;20235;-73
2020/12/09 22:35:03;;;;;;;7.47;6.80;;;5.70;46.80;;;;;;10272800;28;20316;-73
2020/12/09 22:40:06;;;;;;;8.00;7.30;;;5.70;46.80;;;;;;10265024;28;20750;-75
2020/12/09 22:45:11;;;;;;;7.77;7.07;;;5.80;46.90;;;;;;10265607;28;20669;-73
2020/12/09 22:50:13;;;;;;;8.60;7.80;;;5.80;46.60;;;;;;10267390;28;20243;-73
2020/12/09 22:55:16;;;;;;;8.47;7.57;;;5.80;46.70;;;;;;10283216;28;20235;-73
2020/12/09 23:00:19;;;;;;;8.53;7.73;;;5.70;46.70;;;;;;10274276;28;20243;-74
2020/12/09 23:05:21;;;;;;;9.37;8.47;;;5.70;46.70;;;;;;10274759;28;20245;-73
2020/12/09 23:10:24;;;;;;;9.30;8.40;;;5.70;46.70;;;;;;10270121;28;20240;-74
2020/12/09 23:15:28;;;;;;;9.23;8.33;;;5.70;46.70;;;;;;10263866;28;20312;-75
2020/12/09 23:20:30;;;;;;;9.60;8.70;;;5.70;46.80;;;;;;10269547;28;20232;-73
2020/12/09 23:25:33;;;;;;;9.37;8.47;;;5.70;46.80;;;;;;10272262;28;20591;-73
2020/12/09 23:30:37;;;;;;;10.00;9.10;;;5.70;46.90;;;;;;10272031;28;20602;-73
2020/12/09 23:35:40;;;;;;;10.13;9.20;;;5.70;46.80;;;;;;10271436;28;20240;-73
2020/12/09 23:40:43;;;;;;;10.27;9.27;;;5.70;46.80;;;;;;10274186;28;20590;-73
2020/12/09 23:45:46;;;;;;;10.40;9.40;;;5.70;46.90;;;;;;10282793;28;20650;-73
2020/12/09 23:50:48;;;;;;;12.03;9.80;;;5.70;47.00;;;;;;10261541;28;20232;-73
2020/12/09 23:55:51;;;;;;;11.17;9.97;;;5.70;47.00;;;;;;10259684;28;20321;-73
